createdAt,value
2019-01-11T00:01:03.099Z,5.53
2019-01-11T00:03:32.683Z,4.30
2019-01-11T00:06:02.060Z,4.27
2019-01-11T00:08:31.437Z,4.47
2019-01-11T00:11:00.831Z,4.97
2019-01-11T00:13:30.208Z,4.00
2019-01-11T00:15:59.619Z,4.87
2019-01-11T00:18:29.016Z,4.27
2019-01-11T00:20:58.423Z,4.80
2019-01-11T00:23:27.809Z,4.00
2019-01-11T00:25:57.226Z,4.37
2019-01-11T00:28:26.607Z,5.00
2019-01-11T00:30:56.038Z,5.20
2019-01-11T00:33:25.426Z,4.80
2019-01-11T00:35:54.880Z,4.47
2019-01-11T00:38:24.284Z,4.10
2019-01-11T00:40:53.739Z,4.83
2019-01-11T00:43:23.120Z,4.90
2019-01-11T00:45:52.516Z,3.87
2019-01-11T00:48:21.931Z,4.10
2019-01-11T00:50:51.319Z,4.23
2019-01-11T00:53:20.727Z,4.83
2019-01-11T00:55:50.095Z,4.87
2019-01-11T00:58:19.495Z,4.83
2019-01-11T01:00:48.903Z,4.50
2019-01-11T01:03:18.631Z,3.97
2019-01-11T01:05:48.050Z,4.20
2019-01-11T01:08:17.437Z,3.97
2019-01-11T01:10:46.855Z,4.63
2019-01-11T01:13:16.263Z,4.47
2019-01-11T01:15:45.667Z,4.23
2019-01-11T01:18:15.034Z,4.47
2019-01-11T01:20:44.452Z,5.10
2019-01-11T01:23:13.832Z,4.97
2019-01-11T01:25:43.273Z,4.70
2019-01-11T01:28:12.674Z,5.00
2019-01-11T01:30:42.040Z,4.40
2019-01-11T01:33:11.439Z,4.70
2019-01-11T01:35:40.803Z,5.10
2019-01-11T01:38:10.226Z,5.20
2019-01-11T01:40:39.677Z,6.50
2019-01-11T01:43:09.111Z,5.80
2019-01-11T01:45:38.511Z,6.43
2019-01-11T01:48:07.938Z,6.73
2019-01-11T01:50:37.325Z,6.67
2019-01-11T01:53:06.724Z,6.10
2019-01-11T01:55:36.114Z,5.67
2019-01-11T01:58:05.501Z,6.07
2019-01-11T02:00:34.904Z,6.43
2019-01-11T02:03:04.299Z,5.60
2019-01-11T02:05:33.743Z,6.33
2019-01-11T02:08:03.131Z,6.20
2019-01-11T02:10:33.319Z,6.27
2019-01-11T02:13:02.709Z,6.53
2019-01-11T02:15:32.140Z,6.30
2019-01-11T02:18:01.531Z,6.37
2019-01-11T02:20:30.911Z,6.33
2019-01-11T02:23:00.352Z,5.87
2019-01-11T02:25:29.727Z,6.40
2019-01-11T02:27:59.071Z,6.07
2019-01-11T02:30:28.460Z,6.23
2019-01-11T02:32:57.854Z,5.57
2019-01-11T02:35:27.960Z,6.00
2019-01-11T02:37:57.474Z,5.70
2019-01-11T02:40:26.900Z,5.17
2019-01-11T02:42:56.334Z,5.50
2019-01-11T02:45:25.756Z,5.77
2019-01-11T02:47:55.124Z,5.53
2019-01-11T02:50:24.532Z,5.60
2019-01-11T02:52:53.906Z,4.67
2019-01-11T02:55:23.321Z,5.13
2019-01-11T02:57:52.715Z,5.17
2019-01-11T03:00:22.183Z,5.07
2019-01-11T03:02:51.619Z,5.23
2019-01-11T03:05:20.995Z,5.10
2019-01-11T03:07:50.432Z,5.33
2019-01-11T03:10:21.498Z,5.40
2019-01-11T03:12:51.034Z,4.70
2019-01-11T03:15:20.695Z,4.23
2019-01-11T03:17:50.111Z,4.67
2019-01-11T03:20:19.729Z,5.20
2019-01-11T03:22:49.109Z,5.20
2019-01-11T03:25:18.524Z,6.53
2019-01-11T03:27:47.918Z,17.07
2019-01-11T03:30:19.234Z,4.97
2019-01-11T03:32:48.711Z,5.30
2019-01-11T03:35:19.431Z,4.50
2019-01-11T03:37:50.292Z,5.03
2019-01-11T03:40:21.814Z,4.60
2019-01-11T03:42:51.270Z,4.90
2019-01-11T03:45:22.499Z,4.70
2019-01-11T03:47:51.903Z,5.67
2019-01-11T03:50:21.627Z,5.90
2019-01-11T03:52:51.061Z,5.23
2019-01-11T03:55:20.523Z,5.03
2019-01-11T03:57:50.022Z,5.00
2019-01-11T04:00:21.500Z,5.20
2019-01-11T04:02:51.275Z,5.27
2019-01-11T04:05:21.016Z,4.77
2019-01-11T04:07:50.658Z,4.80
2019-01-11T04:10:21.982Z,5.27
2019-01-11T04:12:51.545Z,5.07
2019-01-11T04:15:22.016Z,5.20
2019-01-11T04:18:11.035Z,5.23
2019-01-11T04:20:40.470Z,5.33
2019-01-11T04:23:09.837Z,5.23
2019-01-11T04:25:41.750Z,5.40
2019-01-11T04:28:11.136Z,5.93
2019-01-11T04:30:40.730Z,5.30
2019-01-11T04:33:10.137Z,6.07
2019-01-11T04:35:39.517Z,4.87
2019-01-11T04:38:09.013Z,5.70
2019-01-11T04:40:38.424Z,5.57
2019-01-11T04:43:07.866Z,6.93
2019-01-11T04:45:37.260Z,5.27
2019-01-11T04:48:06.659Z,9.93
2019-01-11T04:50:36.044Z,4.80
2019-01-11T04:53:05.541Z,6.00
2019-01-11T04:55:34.932Z,4.80
2019-01-11T04:58:04.316Z,6.00
2019-01-11T05:00:33.712Z,5.03
2019-01-11T05:03:03.245Z,5.33
2019-01-11T05:05:32.614Z,5.73
2019-01-11T05:08:01.996Z,6.13
2019-01-11T05:10:31.630Z,13.10
2019-01-11T05:13:19.188Z,9.73
2019-01-11T05:15:48.932Z,14.03
2019-01-11T05:18:18.343Z,8.90
2019-01-11T05:20:47.728Z,7.40
2019-01-11T05:23:17.152Z,5.87
2019-01-11T05:25:46.526Z,5.63
2019-01-11T05:28:15.948Z,6.17
2019-01-11T05:30:45.323Z,6.80
2019-01-11T05:33:14.756Z,8.00
2019-01-11T05:35:45.237Z,9.80
2019-01-11T05:38:14.768Z,6.87
2019-01-11T05:40:44.160Z,6.63
2019-01-11T05:43:13.572Z,6.47
2019-01-11T05:45:43.012Z,8.07
2019-01-11T05:48:12.388Z,7.70
2019-01-11T05:50:41.791Z,9.63
2019-01-11T05:53:11.174Z,13.93
2019-01-11T05:55:45.390Z,10.33
2019-01-11T05:58:42.859Z,10.70
2019-01-11T06:01:13.499Z,8.50
2019-01-11T06:03:42.906Z,11.67
2019-01-11T06:06:12.395Z,9.20
2019-01-11T06:08:41.944Z,7.17
2019-01-11T06:11:11.331Z,5.47
2019-01-11T06:13:40.735Z,5.70
2019-01-11T06:16:11.927Z,6.03
2019-01-11T06:18:41.348Z,6.33
2019-01-11T06:21:10.722Z,6.27
2019-01-11T06:23:40.203Z,6.23
2019-01-11T06:26:09.596Z,7.27
2019-01-11T06:28:38.979Z,7.23
2019-01-11T06:31:08.399Z,8.27
2019-01-11T06:33:37.792Z,7.23
2019-01-11T06:36:07.195Z,6.83
2019-01-11T06:38:36.577Z,6.23
2019-01-11T06:41:06.016Z,7.03
2019-01-11T06:43:35.642Z,8.50
2019-01-11T06:46:05.265Z,7.47
2019-01-11T06:48:43.870Z,6.03
2019-01-11T06:51:13.369Z,8.33
2019-01-11T06:53:42.742Z,7.40
2019-01-11T06:56:12.137Z,7.00
2019-01-11T06:58:41.567Z,7.70
2019-01-11T07:01:10.969Z,6.90
2019-01-11T07:03:40.411Z,7.30
2019-01-11T07:06:09.781Z,6.13
2019-01-11T07:08:39.290Z,7.33
2019-01-11T07:11:08.663Z,6.97
2019-01-11T07:13:38.035Z,6.87
2019-01-11T07:16:07.461Z,7.83
2019-01-11T07:18:36.841Z,7.10
2019-01-11T07:21:06.350Z,6.30
2019-01-11T07:23:35.661Z,8.17
2019-01-11T07:26:05.040Z,7.00
2019-01-11T07:28:34.371Z,6.93
2019-01-11T07:31:11.943Z,6.60
2019-01-11T07:33:41.344Z,6.80
2019-01-11T07:36:29.784Z,6.70
2019-01-11T07:38:59.272Z,7.53
2019-01-11T07:41:28.655Z,7.10
2019-01-11T07:43:58.091Z,6.97
2019-01-11T07:46:27.499Z,6.63
2019-01-11T07:48:56.891Z,6.80
2019-01-11T07:51:26.324Z,7.07
2019-01-11T07:53:55.700Z,6.83
2019-01-11T07:56:25.123Z,6.97
2019-01-11T07:58:54.530Z,6.70
2019-01-11T08:01:23.899Z,7.20
2019-01-11T08:03:53.638Z,7.07
2019-01-11T08:06:23.020Z,6.83
2019-01-11T08:08:53.736Z,6.27
2019-01-11T08:11:23.116Z,6.73
2019-01-11T08:13:52.523Z,6.57
2019-01-11T08:16:21.900Z,6.70
2019-01-11T08:18:51.522Z,5.30
2019-01-11T08:21:20.923Z,7.33
2019-01-11T08:23:50.324Z,6.70
2019-01-11T08:26:19.741Z,6.77
2019-01-11T08:28:49.123Z,6.63
2019-01-11T08:31:18.531Z,6.47
2019-01-11T08:33:47.952Z,7.00
2019-01-11T08:36:17.351Z,6.47
2019-01-11T08:38:46.752Z,6.33
2019-01-11T08:41:16.136Z,6.40
2019-01-11T08:43:45.566Z,6.13
2019-01-11T08:46:14.995Z,6.50
2019-01-11T08:48:44.527Z,7.57
2019-01-11T08:51:13.941Z,6.87
2019-01-11T08:53:43.456Z,7.33
2019-01-11T08:56:12.884Z,7.40
2019-01-11T08:58:43.004Z,7.27
2019-01-11T09:01:12.447Z,7.63
2019-01-11T09:03:41.892Z,6.87
2019-01-11T09:06:11.470Z,7.23
2019-01-11T09:08:40.860Z,6.63
2019-01-11T09:11:10.227Z,7.47
2019-01-11T09:13:39.656Z,5.90
2019-01-11T09:16:09.010Z,7.47
2019-01-11T09:18:47.326Z,6.83
2019-01-11T09:21:16.703Z,7.57
2019-01-11T09:23:46.120Z,7.33
2019-01-11T09:26:15.504Z,7.70
2019-01-11T09:28:44.961Z,8.87
2019-01-11T09:31:14.959Z,8.43
2019-01-11T09:33:44.328Z,8.33
2019-01-11T09:36:13.770Z,9.40
2019-01-11T09:38:43.152Z,10.00
2019-01-11T09:41:12.566Z,10.37
2019-01-11T09:43:42.020Z,9.93
2019-01-11T09:46:11.468Z,10.80
2019-01-11T09:48:41.216Z,10.77
2019-01-11T09:51:15.696Z,10.87
2019-01-11T09:53:41.703Z,11.83
2019-01-11T09:56:11.112Z,10.67
2019-01-11T09:58:40.558Z,11.77
2019-01-11T10:01:10.179Z,11.70
2019-01-11T10:03:39.571Z,12.00
2019-01-11T10:06:08.978Z,11.03
2019-01-11T10:08:38.413Z,10.87
2019-01-11T10:11:07.812Z,11.63
2019-01-11T10:13:37.237Z,12.73
2019-01-11T10:16:06.627Z,11.57
2019-01-11T10:18:36.038Z,11.17
2019-01-11T10:21:05.582Z,13.57
2019-01-11T10:23:34.986Z,12.07
2019-01-11T10:26:05.728Z,12.57
2019-01-11T10:28:35.122Z,13.10
2019-01-11T10:31:04.908Z,12.90
2019-01-11T10:33:36.299Z,12.63
2019-01-11T10:36:05.343Z,12.03
2019-01-11T10:38:34.781Z,13.17
2019-01-11T10:41:04.178Z,12.90
2019-01-11T10:43:33.621Z,13.73
2019-01-11T10:46:04.615Z,13.30
2019-01-11T10:48:34.232Z,13.30
2019-01-11T10:51:03.628Z,12.10
2019-01-11T10:53:33.410Z,13.40
2019-01-11T10:56:02.817Z,14.33
2019-01-11T10:58:32.232Z,14.40
2019-01-11T11:01:01.651Z,13.37
2019-01-11T11:03:31.092Z,13.67
2019-01-11T11:06:00.471Z,13.67
2019-01-11T11:08:29.856Z,14.90
2019-01-11T11:10:59.286Z,14.80
2019-01-11T11:13:28.681Z,13.77
2019-01-11T11:15:59.814Z,14.23
2019-01-11T11:18:29.149Z,11.97
2019-01-11T11:20:58.527Z,14.77
2019-01-11T11:23:27.951Z,13.97
2019-01-11T11:25:57.336Z,13.33
2019-01-11T11:28:26.767Z,13.30
2019-01-11T11:30:56.968Z,13.53
2019-01-11T11:33:26.384Z,14.17
2019-01-11T11:35:55.807Z,14.27
2019-01-11T11:38:25.546Z,13.90
2019-01-11T11:40:54.928Z,14.33
2019-01-11T11:43:24.317Z,20.60
2019-01-11T11:45:53.716Z,13.70
2019-01-11T11:48:23.170Z,13.27
2019-01-11T11:50:52.595Z,14.60
2019-01-11T11:53:22.260Z,14.47
2019-01-11T11:55:51.691Z,15.23
2019-01-11T11:58:21.093Z,13.80
2019-01-11T12:00:50.631Z,13.20
2019-01-11T12:03:20.031Z,14.30
2019-01-11T12:05:49.433Z,14.77
2019-01-11T12:08:18.858Z,12.60
2019-01-11T12:10:48.232Z,12.27
2019-01-11T12:13:17.659Z,13.33
2019-01-11T12:15:47.054Z,12.97
2019-01-11T12:18:16.465Z,13.23
2019-01-11T12:20:46.095Z,13.53
2019-01-11T12:23:15.492Z,14.30
2019-01-11T12:25:44.889Z,15.83
2019-01-11T12:28:14.313Z,12.20
2019-01-11T12:30:43.700Z,12.63
2019-01-11T12:33:13.456Z,15.30
2019-01-11T12:35:42.887Z,11.50
2019-01-11T12:38:13.752Z,12.87
2019-01-11T12:40:43.318Z,11.00
2019-01-11T12:43:12.721Z,11.30
2019-01-11T12:45:42.139Z,10.80
2019-01-11T12:48:11.592Z,11.37
2019-01-11T12:50:41.021Z,12.77
2019-01-11T12:53:10.408Z,11.90
2019-01-11T12:55:40.675Z,13.53
2019-01-11T12:58:10.063Z,12.03
2019-01-11T13:00:39.536Z,11.73
2019-01-11T13:03:08.920Z,11.33
2019-01-11T13:05:38.297Z,12.80
2019-01-11T13:08:07.719Z,12.07
2019-01-11T13:10:37.115Z,12.83
2019-01-11T13:13:06.535Z,11.97
2019-01-11T13:15:35.919Z,11.77
2019-01-11T13:18:05.540Z,11.53
2019-01-11T13:20:34.926Z,9.87
2019-01-11T13:23:04.534Z,11.13
2019-01-11T13:25:33.903Z,10.87
2019-01-11T13:28:03.285Z,11.17
2019-01-11T13:30:32.696Z,10.83
2019-01-11T13:33:02.145Z,9.83
2019-01-11T13:35:31.586Z,10.93
2019-01-11T13:38:00.999Z,11.00
2019-01-11T13:40:30.413Z,11.83
2019-01-11T13:42:59.796Z,10.83
2019-01-11T13:45:29.179Z,10.73
2019-01-11T13:47:58.608Z,11.13
2019-01-11T13:50:38.638Z,10.63
2019-01-11T13:53:27.115Z,10.20
2019-01-11T13:55:56.508Z,12.30
2019-01-11T13:58:25.935Z,10.27
2019-01-11T14:00:55.342Z,10.10
2019-01-11T14:03:25.023Z,10.97
2019-01-11T14:05:54.420Z,15.03
2019-01-11T14:08:23.792Z,10.73
2019-01-11T14:10:53.199Z,11.63
2019-01-11T14:13:22.600Z,10.07
2019-01-11T14:15:52.036Z,11.40
2019-01-11T14:18:21.410Z,14.70
2019-01-11T14:20:50.822Z,10.87
2019-01-11T14:23:20.207Z,13.27
2019-01-11T14:25:49.698Z,11.43
2019-01-11T14:28:19.067Z,9.87
2019-01-11T14:30:48.452Z,9.40
2019-01-11T14:33:17.878Z,9.53
2019-01-11T14:35:47.261Z,10.77
2019-01-11T14:38:16.808Z,10.53
2019-01-11T14:40:46.195Z,11.17
2019-01-11T14:43:16.228Z,10.67
2019-01-11T14:45:45.616Z,10.43
2019-01-11T14:48:15.075Z,10.83
2019-01-11T14:50:44.502Z,10.77
2019-01-11T14:53:13.881Z,37.90
2019-01-11T14:55:43.291Z,11.97
2019-01-11T14:58:12.682Z,10.23
2019-01-11T15:00:42.128Z,9.40
2019-01-11T15:03:11.531Z,9.17
2019-01-11T15:05:40.947Z,9.50
2019-01-11T15:08:10.371Z,9.23
2019-01-11T15:10:39.766Z,10.23
2019-01-11T15:13:09.190Z,8.80
2019-01-11T15:15:38.601Z,9.97
2019-01-11T15:18:08.035Z,8.13
2019-01-11T15:20:37.423Z,8.67
2019-01-11T15:23:13.257Z,9.30
2019-01-11T15:25:37.855Z,9.67
2019-01-11T15:28:07.263Z,10.03
2019-01-11T15:30:36.676Z,8.57
2019-01-11T15:33:06.079Z,8.03
2019-01-11T15:35:35.500Z,7.93
2019-01-11T15:38:05.173Z,9.20
2019-01-11T15:40:36.943Z,7.70
2019-01-11T15:43:05.804Z,7.80
2019-01-11T15:45:35.199Z,7.10
2019-01-11T15:48:04.687Z,6.83
2019-01-11T15:51:06.979Z,7.23
2019-01-11T15:53:39.339Z,7.40
2019-01-11T15:56:10.794Z,8.57
2019-01-11T15:58:40.189Z,7.83
2019-01-11T16:01:09.711Z,7.90
2019-01-11T16:03:39.480Z,9.43
2019-01-11T16:06:30.649Z,9.27
2019-01-11T16:09:57.745Z,8.17
2019-01-11T16:12:35.691Z,9.57
2019-01-11T16:15:12.514Z,9.13
2019-01-11T16:17:41.927Z,8.60
2019-01-11T16:20:11.655Z,9.13
2019-01-11T16:22:41.052Z,9.30
2019-01-11T16:25:11.304Z,9.83
2019-01-11T16:27:42.181Z,11.03
2019-01-11T16:30:12.281Z,9.90
2019-01-11T16:32:41.703Z,11.03
2019-01-11T16:35:11.193Z,11.60
2019-01-11T16:37:40.576Z,9.70
2019-01-11T16:40:10.052Z,10.80
2019-01-11T16:42:39.436Z,9.40
2019-01-11T16:45:10.751Z,10.17
2019-01-11T16:47:40.205Z,10.60
2019-01-11T16:50:12.252Z,11.63
2019-01-11T16:52:46.334Z,12.07
2019-01-11T16:55:12.770Z,12.33
2019-01-11T16:57:42.177Z,13.07
2019-01-11T17:00:14.848Z,12.73
2019-01-11T17:02:44.302Z,12.17
2019-01-11T17:05:14.122Z,11.50
2019-01-11T17:07:43.639Z,12.70
2019-01-11T17:10:13.164Z,12.43
2019-01-11T17:12:42.571Z,11.77
2019-01-11T17:15:14.515Z,11.87
2019-01-11T17:17:43.944Z,11.70
2019-01-11T17:20:15.923Z,11.43
2019-01-11T17:22:45.332Z,12.63
2019-01-11T17:25:15.107Z,12.30
2019-01-11T17:27:44.877Z,12.00
2019-01-11T17:30:18.871Z,12.40
2019-01-11T17:32:48.363Z,12.17
2019-01-11T17:35:18.148Z,11.43
2019-01-11T17:37:47.900Z,12.13
2019-01-11T17:40:17.391Z,11.73
2019-01-11T17:42:46.815Z,11.53
2019-01-11T17:45:16.205Z,14.23
2019-01-11T17:47:45.643Z,13.47
2019-01-11T17:50:17.181Z,13.17
2019-01-11T17:52:46.605Z,12.57
2019-01-11T17:55:16.418Z,12.30
2019-01-11T17:57:47.871Z,11.23
2019-01-11T18:00:18.312Z,11.07
2019-01-11T18:02:47.720Z,10.47
2019-01-11T18:05:17.632Z,12.07
2019-01-11T18:07:47.043Z,11.90
2019-01-11T18:10:16.477Z,10.50
2019-01-11T18:12:46.524Z,11.63
2019-01-11T18:15:19.243Z,9.43
2019-01-11T18:17:48.812Z,9.77
2019-01-11T18:20:23.215Z,9.60
2019-01-11T18:22:52.724Z,8.90
2019-01-11T18:25:22.104Z,7.37
2019-01-11T18:27:51.505Z,6.70
2019-01-11T18:30:21.367Z,6.80
2019-01-11T18:32:50.718Z,6.37
2019-01-11T18:35:20.145Z,6.80
2019-01-11T18:37:49.543Z,9.10
2019-01-11T18:40:21.459Z,5.57
2019-01-11T18:42:50.900Z,6.10
2019-01-11T18:45:20.417Z,8.40
2019-01-11T18:47:49.799Z,5.53
2019-01-11T18:50:21.066Z,6.10
2019-01-11T18:52:50.602Z,6.00
2019-01-11T18:55:20.000Z,7.27
2019-01-11T18:57:49.489Z,6.30
2019-01-11T19:00:23.533Z,6.00
2019-01-11T19:02:52.969Z,7.93
2019-01-11T19:05:22.362Z,7.67
2019-01-11T19:07:51.961Z,7.20
2019-01-11T19:10:21.495Z,6.40
2019-01-11T19:12:50.809Z,6.67
2019-01-11T19:15:22.829Z,6.73
2019-01-11T19:17:52.218Z,7.10
2019-01-11T19:20:26.724Z,7.33
2019-01-11T19:22:56.144Z,7.60
2019-01-11T19:25:25.539Z,7.67
2019-01-11T19:27:54.959Z,7.10
2019-01-11T19:30:28.799Z,6.80
2019-01-11T19:32:58.242Z,8.20
2019-01-11T19:35:27.653Z,8.77
2019-01-11T19:37:57.045Z,7.00
2019-01-11T19:40:26.461Z,8.50
2019-01-11T19:42:55.871Z,8.60
2019-01-11T19:45:25.305Z,9.33
2019-01-11T19:47:55.092Z,10.90
2019-01-11T19:50:26.257Z,10.83
2019-01-11T19:52:55.665Z,8.93
2019-01-11T19:55:25.195Z,11.43
2019-01-11T19:57:54.592Z,12.70
2019-01-11T20:00:28.824Z,12.70
2019-01-11T20:02:58.283Z,11.67
2019-01-11T20:05:27.974Z,12.80
2019-01-11T20:07:57.384Z,12.00
2019-01-11T20:10:29.388Z,15.03
2019-01-11T20:12:58.830Z,11.50
2019-01-11T20:15:28.239Z,10.67
2019-01-11T20:17:57.767Z,9.70
2019-01-11T20:20:27.163Z,11.50
2019-01-11T20:23:02.229Z,11.30
2019-01-11T20:25:28.059Z,10.27
2019-01-11T20:27:57.475Z,9.83
2019-01-11T20:30:30.032Z,11.63
2019-01-11T20:32:59.468Z,11.83
2019-01-11T20:35:32.232Z,10.80
2019-01-11T20:38:01.629Z,11.90
2019-01-11T20:40:31.031Z,10.80
2019-01-11T20:43:00.468Z,13.43
2019-01-11T20:45:29.865Z,11.07
2019-01-11T20:47:59.311Z,11.77
2019-01-11T20:50:28.858Z,11.53
2019-01-11T20:52:58.475Z,12.67
2019-01-11T20:55:27.876Z,13.00
2019-01-11T20:57:57.331Z,11.70
2019-01-11T21:00:35.154Z,11.30
2019-01-11T21:03:06.687Z,11.20
2019-01-11T21:05:36.197Z,11.47
2019-01-11T21:08:05.725Z,11.17
2019-01-11T21:10:35.476Z,12.40
2019-01-11T21:13:05.293Z,10.77
2019-01-11T21:15:34.686Z,13.20
2019-01-11T21:18:04.706Z,11.07
2019-01-11T21:20:34.083Z,10.87
2019-01-11T21:23:03.575Z,9.83
2019-01-11T21:25:32.958Z,10.80
2019-01-11T21:28:02.351Z,10.57
2019-01-11T21:30:32.099Z,10.20
2019-01-11T21:33:01.660Z,9.83
2019-01-11T21:35:31.171Z,9.50
2019-01-11T21:38:00.688Z,11.73
2019-01-11T21:40:30.216Z,10.00
2019-01-11T21:42:59.644Z,10.53
2019-01-11T21:45:29.052Z,10.00
2019-01-11T21:47:58.510Z,10.27
2019-01-11T21:50:29.271Z,11.37
2019-01-11T21:52:58.833Z,10.07
2019-01-11T21:55:28.290Z,11.17
2019-01-11T21:57:59.159Z,11.40
2019-01-11T22:00:37.265Z,10.83
2019-01-11T22:03:08.546Z,8.97
2019-01-11T22:05:38.015Z,9.27
2019-01-11T22:08:07.419Z,10.37
2019-01-11T22:10:36.836Z,11.03
2019-01-11T22:13:06.352Z,10.30
2019-01-11T22:15:35.761Z,9.97
2019-01-11T22:18:05.319Z,10.63
2019-01-11T22:20:34.716Z,11.77
2019-01-11T22:23:04.161Z,10.77
2019-01-11T22:25:33.593Z,11.50
2019-01-11T22:28:03.000Z,11.67
2019-01-11T22:30:32.424Z,12.23
2019-01-11T22:33:01.832Z,11.03
2019-01-11T22:35:31.249Z,11.67
2019-01-11T22:38:00.620Z,11.83
2019-01-11T22:40:30.275Z,11.90
2019-01-11T22:43:00.331Z,9.93
2019-01-11T22:45:29.723Z,13.20
2019-01-11T22:48:00.252Z,10.63
2019-01-11T22:50:29.649Z,11.27
2019-01-11T22:52:59.115Z,10.33
2019-01-11T22:55:28.503Z,10.87
2019-01-11T22:57:57.919Z,12.00
2019-01-11T23:00:43.981Z,10.00
2019-01-11T23:03:25.680Z,10.83
2019-01-11T23:05:59.252Z,10.57
2019-01-11T23:08:28.695Z,10.57
2019-01-11T23:11:23.619Z,11.47
2019-01-11T23:13:53.048Z,10.00
2019-01-11T23:16:33.737Z,9.63
2019-01-11T23:19:03.180Z,9.80
2019-01-11T23:21:32.572Z,10.13
2019-01-11T23:24:01.987Z,11.23
2019-01-11T23:26:31.396Z,10.90
2019-01-11T23:29:00.784Z,10.90
2019-01-11T23:31:30.227Z,10.90
2019-01-11T23:33:59.608Z,9.37
2019-01-11T23:36:29.043Z,9.53
2019-01-11T23:38:58.457Z,14.53
2019-01-11T23:41:27.840Z,16.57
2019-01-11T23:43:57.611Z,12.07
2019-01-11T23:46:26.998Z,10.90
2019-01-11T23:48:56.414Z,10.60
2019-01-11T23:51:25.988Z,11.10
2019-01-11T23:53:55.427Z,9.63
2019-01-11T23:56:24.816Z,9.67
2019-01-11T23:58:54.231Z,12.37
